sensor_id;sensor_type;location;lat;lon;timestamp;temperature;humidity
82851;DHT22;72609;45.768;4.884;2024-02-21T00:01:36;10.70;71.60
82851;DHT22;72609;45.768;4.884;2024-02-21T00:04:02;10.80;71.30
82851;DHT22;72609;45.768;4.884;2024-02-21T00:06:27;10.90;70.80
82851;DHT22;72609;45.768;4.884;2024-02-21T00:08:53;10.70;70.40
82851;DHT22;72609;45.768;4.884;2024-02-21T00:11:18;10.70;70.60
82851;DHT22;72609;45.768;4.884;2024-02-21T00:13:44;10.70;70.40
82851;DHT22;72609;45.768;4.884;2024-02-21T00:16:10;10.70;70.80
82851;DHT22;72609;45.768;4.884;2024-02-21T00:18:36;10.70;71.20
82851;DHT22;72609;45.768;4.884;2024-02-21T00:21:02;10.70;71.00
82851;DHT22;72609;45.768;4.884;2024-02-21T00:23:28;10.70;70.80
82851;DHT22;72609;45.768;4.884;2024-02-21T00:25:54;10.70;70.70
82851;DHT22;72609;45.768;4.884;2024-02-21T00:28:19;10.70;70.70
82851;DHT22;72609;45.768;4.884;2024-02-21T00:30:45;10.70;70.90
82851;DHT22;72609;45.768;4.884;2024-02-21T00:33:13;10.70;70.50
82851;DHT22;72609;45.768;4.884;2024-02-21T00:35:38;10.70;70.50
82851;DHT22;72609;45.768;4.884;2024-02-21T00:38:04;10.60;70.50
82851;DHT22;72609;45.768;4.884;2024-02-21T00:40:30;10.60;70.60
82851;DHT22;72609;45.768;4.884;2024-02-21T00:42:56;10.50;70.50
82851;DHT22;72609;45.768;4.884;2024-02-21T00:45:21;10.50;70.30
82851;DHT22;72609;45.768;4.884;2024-02-21T00:47:47;10.30;69.70
82851;DHT22;72609;45.768;4.884;2024-02-21T00:50:13;10.00;70.20
82851;DHT22;72609;45.768;4.884;2024-02-21T00:52:38;10.10;70.60
82851;DHT22;72609;45.768;4.884;2024-02-21T00:55:05;10.10;70.60
82851;DHT22;72609;45.768;4.884;2024-02-21T00:57:30;10.20;70.30
82851;DHT22;72609;45.768;4.884;2024-02-21T00:59:57;10.30;70.20
82851;DHT22;72609;45.768;4.884;2024-02-21T01:02:22;10.30;70.30
82851;DHT22;72609;45.768;4.884;2024-02-21T01:04:48;10.30;70.10
82851;DHT22;72609;45.768;4.884;2024-02-21T01:07:14;10.20;70.30
82851;DHT22;72609;45.768;4.884;2024-02-21T01:09:39;10.20;70.50
82851;DHT22;72609;45.768;4.884;2024-02-21T01:12:05;10.30;70.50
82851;DHT22;72609;45.768;4.884;2024-02-21T01:14:31;10.20;70.50
82851;DHT22;72609;45.768;4.884;2024-02-21T01:16:57;10.30;70.70
82851;DHT22;72609;45.768;4.884;2024-02-21T01:19:22;10.30;70.50
82851;DHT22;72609;45.768;4.884;2024-02-21T01:21:49;10.30;70.20
82851;DHT22;72609;45.768;4.884;2024-02-21T01:24:14;10.40;70.10
82851;DHT22;72609;45.768;4.884;2024-02-21T01:26:40;10.40;70.00
82851;DHT22;72609;45.768;4.884;2024-02-21T01:29:06;10.40;69.80
82851;DHT22;72609;45.768;4.884;2024-02-21T01:31:32;10.40;69.80
82851;DHT22;72609;45.768;4.884;2024-02-21T01:33:57;10.40;69.80
82851;DHT22;72609;45.768;4.884;2024-02-21T01:36:23;10.30;69.80
82851;DHT22;72609;45.768;4.884;2024-02-21T01:38:49;10.30;69.90
82851;DHT22;72609;45.768;4.884;2024-02-21T01:41:14;10.20;70.40
82851;DHT22;72609;45.768;4.884;2024-02-21T01:43:41;10.10;70.80
82851;DHT22;72609;45.768;4.884;2024-02-21T01:46:07;9.90;71.10
82851;DHT22;72609;45.768;4.884;2024-02-21T01:48:33;9.90;71.30
82851;DHT22;72609;45.768;4.884;2024-02-21T01:50:59;9.90;71.50
82851;DHT22;72609;45.768;4.884;2024-02-21T01:53:30;10.00;71.30
82851;DHT22;72609;45.768;4.884;2024-02-21T01:55:56;9.70;72.10
82851;DHT22;72609;45.768;4.884;2024-02-21T01:58:22;9.60;72.70
82851;DHT22;72609;45.768;4.884;2024-02-21T02:00:48;9.70;72.70
82851;DHT22;72609;45.768;4.884;2024-02-21T02:03:15;9.70;72.70
82851;DHT22;72609;45.768;4.884;2024-02-21T02:05:45;9.70;72.30
82851;DHT22;72609;45.768;4.884;2024-02-21T02:08:14;9.80;72.60
82851;DHT22;72609;45.768;4.884;2024-02-21T02:10:40;9.90;71.70
82851;DHT22;72609;45.768;4.884;2024-02-21T02:13:06;10.00;71.70
82851;DHT22;72609;45.768;4.884;2024-02-21T02:15:49;10.00;71.50
82851;DHT22;72609;45.768;4.884;2024-02-21T02:18:15;9.90;71.50
82851;DHT22;72609;45.768;4.884;2024-02-21T02:20:41;10.00;71.40
82851;DHT22;72609;45.768;4.884;2024-02-21T02:23:17;9.90;71.50
82851;DHT22;72609;45.768;4.884;2024-02-21T02:25:42;9.90;71.40
82851;DHT22;72609;45.768;4.884;2024-02-21T02:28:09;10.00;71.40
82851;DHT22;72609;45.768;4.884;2024-02-21T02:30:35;10.00;71.20
82851;DHT22;72609;45.768;4.884;2024-02-21T02:33:05;9.90;71.30
82851;DHT22;72609;45.768;4.884;2024-02-21T02:35:31;9.90;71.50
82851;DHT22;72609;45.768;4.884;2024-02-21T02:37:57;9.90;71.60
82851;DHT22;72609;45.768;4.884;2024-02-21T02:40:23;9.80;71.50
82851;DHT22;72609;45.768;4.884;2024-02-21T02:42:49;9.90;71.60
82851;DHT22;72609;45.768;4.884;2024-02-21T02:45:18;9.90;71.60
82851;DHT22;72609;45.768;4.884;2024-02-21T02:47:47;9.80;71.70
82851;DHT22;72609;45.768;4.884;2024-02-21T02:50:13;9.90;71.90
82851;DHT22;72609;45.768;4.884;2024-02-21T02:52:39;9.80;71.90
82851;DHT22;72609;45.768;4.884;2024-02-21T02:55:05;9.70;72.20
82851;DHT22;72609;45.768;4.884;2024-02-21T02:57:31;9.70;72.20
82851;DHT22;72609;45.768;4.884;2024-02-21T02:59:57;9.70;72.20
82851;DHT22;72609;45.768;4.884;2024-02-21T03:02:23;9.80;73.80
82851;DHT22;72609;45.768;4.884;2024-02-21T03:04:48;9.80;75.70
82851;DHT22;72609;45.768;4.884;2024-02-21T03:07:15;9.70;82.40
82851;DHT22;72609;45.768;4.884;2024-02-21T03:09:41;9.80;76.20
82851;DHT22;72609;45.768;4.884;2024-02-21T03:12:08;9.60;73.20
82851;DHT22;72609;45.768;4.884;2024-02-21T03:14:34;9.70;72.90
82851;DHT22;72609;45.768;4.884;2024-02-21T03:17:00;9.70;72.50
82851;DHT22;72609;45.768;4.884;2024-02-21T03:19:26;9.70;72.50
82851;DHT22;72609;45.768;4.884;2024-02-21T03:21:52;9.80;72.50
82851;DHT22;72609;45.768;4.884;2024-02-21T03:24:18;9.80;72.70
82851;DHT22;72609;45.768;4.884;2024-02-21T03:26:44;9.90;73.20
82851;DHT22;72609;45.768;4.884;2024-02-21T03:29:11;9.90;73.50
82851;DHT22;72609;45.768;4.884;2024-02-21T03:31:37;9.90;73.80
82851;DHT22;72609;45.768;4.884;2024-02-21T03:34:03;9.90;74.30
82851;DHT22;72609;45.768;4.884;2024-02-21T03:36:28;9.90;74.70
82851;DHT22;72609;45.768;4.884;2024-02-21T03:38:55;9.90;75.50
82851;DHT22;72609;45.768;4.884;2024-02-21T03:41:21;9.80;79.90
82851;DHT22;72609;45.768;4.884;2024-02-21T03:43:46;9.70;81.30
82851;DHT22;72609;45.768;4.884;2024-02-21T03:46:12;9.80;78.80
82851;DHT22;72609;45.768;4.884;2024-02-21T03:48:38;9.80;76.30
82851;DHT22;72609;45.768;4.884;2024-02-21T03:51:04;9.80;73.30
82851;DHT22;72609;45.768;4.884;2024-02-21T03:53:30;9.70;72.80
82851;DHT22;72609;45.768;4.884;2024-02-21T03:55:55;9.70;72.60
82851;DHT22;72609;45.768;4.884;2024-02-21T03:58:21;9.60;72.70
82851;DHT22;72609;45.768;4.884;2024-02-21T04:03:13;9.30;81.30
82851;DHT22;72609;45.768;4.884;2024-02-21T04:05:39;9.30;82.80
82851;DHT22;72609;45.768;4.884;2024-02-21T04:08:05;9.40;82.00
82851;DHT22;72609;45.768;4.884;2024-02-21T04:10:31;9.50;81.90
82851;DHT22;72609;45.768;4.884;2024-02-21T04:12:56;9.60;81.80
82851;DHT22;72609;45.768;4.884;2024-02-21T04:15:22;9.70;82.10
82851;DHT22;72609;45.768;4.884;2024-02-21T04:17:47;9.70;81.90
82851;DHT22;72609;45.768;4.884;2024-02-21T04:20:15;9.70;81.70
82851;DHT22;72609;45.768;4.884;2024-02-21T04:22:43;9.80;83.50
82851;DHT22;72609;45.768;4.884;2024-02-21T04:25:10;9.80;81.10
82851;DHT22;72609;45.768;4.884;2024-02-21T04:27:37;9.70;78.70
82851;DHT22;72609;45.768;4.884;2024-02-21T04:30:03;9.60;78.70
82851;DHT22;72609;45.768;4.884;2024-02-21T04:32:29;9.60;78.70
82851;DHT22;72609;45.768;4.884;2024-02-21T04:34:54;9.60;78.50
82851;DHT22;72609;45.768;4.884;2024-02-21T04:37:20;9.70;78.10
82851;DHT22;72609;45.768;4.884;2024-02-21T04:39:46;9.80;77.70
82851;DHT22;72609;45.768;4.884;2024-02-21T04:42:12;9.80;77.40
82851;DHT22;72609;45.768;4.884;2024-02-21T04:44:38;9.80;77.20
82851;DHT22;72609;45.768;4.884;2024-02-21T04:47:03;9.70;77.50
82851;DHT22;72609;45.768;4.884;2024-02-21T04:49:29;9.70;77.30
82851;DHT22;72609;45.768;4.884;2024-02-21T04:51:55;9.70;77.10
82851;DHT22;72609;45.768;4.884;2024-02-21T04:54:21;9.70;77.10
82851;DHT22;72609;45.768;4.884;2024-02-21T04:56:46;9.60;77.10
82851;DHT22;72609;45.768;4.884;2024-02-21T04:59:12;9.50;77.40
82851;DHT22;72609;45.768;4.884;2024-02-21T05:01:37;9.60;77.40
82851;DHT22;72609;45.768;4.884;2024-02-21T05:04:03;9.60;77.30
82851;DHT22;72609;45.768;4.884;2024-02-21T05:06:29;9.60;77.20
82851;DHT22;72609;45.768;4.884;2024-02-21T05:08:55;9.60;77.10
82851;DHT22;72609;45.768;4.884;2024-02-21T05:11:24;9.60;77.70
82851;DHT22;72609;45.768;4.884;2024-02-21T05:13:50;9.60;77.10
82851;DHT22;72609;45.768;4.884;2024-02-21T05:16:16;9.50;77.00
82851;DHT22;72609;45.768;4.884;2024-02-21T05:18:41;9.40;77.30
82851;DHT22;72609;45.768;4.884;2024-02-21T05:21:08;9.30;77.40
82851;DHT22;72609;45.768;4.884;2024-02-21T05:23:33;9.10;78.20
82851;DHT22;72609;45.768;4.884;2024-02-21T05:25:59;9.10;78.10
82851;DHT22;72609;45.768;4.884;2024-02-21T05:28:25;9.20;77.90
82851;DHT22;72609;45.768;4.884;2024-02-21T05:30:50;9.20;77.60
82851;DHT22;72609;45.768;4.884;2024-02-21T05:33:16;9.20;77.40
82851;DHT22;72609;45.768;4.884;2024-02-21T05:35:47;9.00;77.60
82851;DHT22;72609;45.768;4.884;2024-02-21T05:38:14;8.70;81.40
82851;DHT22;72609;45.768;4.884;2024-02-21T05:40:40;8.50;79.10
82851;DHT22;72609;45.768;4.884;2024-02-21T05:43:06;8.40;78.20
82851;DHT22;72609;45.768;4.884;2024-02-21T05:45:32;8.60;77.70
82851;DHT22;72609;45.768;4.884;2024-02-21T05:47:57;8.60;77.10
82851;DHT22;72609;45.768;4.884;2024-02-21T05:50:23;8.60;77.00
82851;DHT22;72609;45.768;4.884;2024-02-21T05:52:52;8.40;77.30
82851;DHT22;72609;45.768;4.884;2024-02-21T05:55:18;8.40;77.20
82851;DHT22;72609;45.768;4.884;2024-02-21T05:57:44;8.30;76.80
82851;DHT22;72609;45.768;4.884;2024-02-21T06:00:09;8.40;77.20
82851;DHT22;72609;45.768;4.884;2024-02-21T06:02:35;8.60;76.10
82851;DHT22;72609;45.768;4.884;2024-02-21T06:05:01;8.70;75.30
82851;DHT22;72609;45.768;4.884;2024-02-21T06:07:26;8.60;76.10
82851;DHT22;72609;45.768;4.884;2024-02-21T06:09:52;8.40;75.60
82851;DHT22;72609;45.768;4.884;2024-02-21T06:12:18;8.50;76.00
82851;DHT22;72609;45.768;4.884;2024-02-21T06:14:43;8.70;75.70
82851;DHT22;72609;45.768;4.884;2024-02-21T06:17:09;8.80;74.90
82851;DHT22;72609;45.768;4.884;2024-02-21T06:19:34;8.90;74.80
82851;DHT22;72609;45.768;4.884;2024-02-21T06:22:00;9.00;74.80
82851;DHT22;72609;45.768;4.884;2024-02-21T06:24:25;9.00;74.30
82851;DHT22;72609;45.768;4.884;2024-02-21T06:26:51;8.90;74.50
82851;DHT22;72609;45.768;4.884;2024-02-21T06:29:17;8.70;74.50
82851;DHT22;72609;45.768;4.884;2024-02-21T06:31:42;8.50;75.20
82851;DHT22;72609;45.768;4.884;2024-02-21T06:34:08;8.50;75.70
82851;DHT22;72609;45.768;4.884;2024-02-21T06:36:33;8.60;75.90
82851;DHT22;72609;45.768;4.884;2024-02-21T06:38:59;8.80;75.60
82851;DHT22;72609;45.768;4.884;2024-02-21T06:41:24;8.70;75.40
82851;DHT22;72609;45.768;4.884;2024-02-21T06:43:50;8.40;76.60
82851;DHT22;72609;45.768;4.884;2024-02-21T06:46:26;8.40;76.80
82851;DHT22;72609;45.768;4.884;2024-02-21T06:48:54;8.60;76.50
82851;DHT22;72609;45.768;4.884;2024-02-21T06:51:21;8.70;76.10
82851;DHT22;72609;45.768;4.884;2024-02-21T06:53:47;8.80;75.70
82851;DHT22;72609;45.768;4.884;2024-02-21T06:56:13;8.80;75.60
82851;DHT22;72609;45.768;4.884;2024-02-21T06:58:39;8.70;75.80
82851;DHT22;72609;45.768;4.884;2024-02-21T07:01:04;8.60;76.30
82851;DHT22;72609;45.768;4.884;2024-02-21T07:03:30;8.60;76.30
82851;DHT22;72609;45.768;4.884;2024-02-21T07:05:55;8.60;75.90
82851;DHT22;72609;45.768;4.884;2024-02-21T07:08:21;8.60;75.90
82851;DHT22;72609;45.768;4.884;2024-02-21T07:10:47;8.70;76.00
82851;DHT22;72609;45.768;4.884;2024-02-21T07:13:12;8.80;76.60
82851;DHT22;72609;45.768;4.884;2024-02-21T07:15:38;8.90;75.80
82851;DHT22;72609;45.768;4.884;2024-02-21T07:18:04;9.00;75.70
82851;DHT22;72609;45.768;4.884;2024-02-21T07:20:30;9.00;74.90
82851;DHT22;72609;45.768;4.884;2024-02-21T07:22:55;8.90;74.40
82851;DHT22;72609;45.768;4.884;2024-02-21T07:25:21;8.80;74.60
82851;DHT22;72609;45.768;4.884;2024-02-21T07:27:47;8.80;74.80
82851;DHT22;72609;45.768;4.884;2024-02-21T07:30:12;8.90;75.10
82851;DHT22;72609;45.768;4.884;2024-02-21T07:32:38;9.00;74.60
82851;DHT22;72609;45.768;4.884;2024-02-21T07:35:04;9.00;74.50
82851;DHT22;72609;45.768;4.884;2024-02-21T07:37:31;9.10;74.00
82851;DHT22;72609;45.768;4.884;2024-02-21T07:39:56;9.00;73.50
82851;DHT22;72609;45.768;4.884;2024-02-21T07:42:22;9.00;74.00
82851;DHT22;72609;45.768;4.884;2024-02-21T07:44:47;8.80;74.20
82851;DHT22;72609;45.768;4.884;2024-02-21T07:47:13;8.80;74.70
82851;DHT22;72609;45.768;4.884;2024-02-21T07:49:44;8.70;74.70
82851;DHT22;72609;45.768;4.884;2024-02-21T07:52:10;8.80;75.10
82851;DHT22;72609;45.768;4.884;2024-02-21T07:54:35;8.80;74.90
82851;DHT22;72609;45.768;4.884;2024-02-21T07:57:01;8.80;74.90
82851;DHT22;72609;45.768;4.884;2024-02-21T07:59:26;8.80;74.80
82851;DHT22;72609;45.768;4.884;2024-02-21T08:01:56;8.80;74.50
82851;DHT22;72609;45.768;4.884;2024-02-21T08:04:22;8.80;74.70
82851;DHT22;72609;45.768;4.884;2024-02-21T08:06:53;8.80;74.60
82851;DHT22;72609;45.768;4.884;2024-02-21T08:09:23;8.80;75.20
82851;DHT22;72609;45.768;4.884;2024-02-21T08:11:49;8.90;74.60
82851;DHT22;72609;45.768;4.884;2024-02-21T08:14:14;8.90;75.20
82851;DHT22;72609;45.768;4.884;2024-02-21T08:16:42;8.90;74.00
82851;DHT22;72609;45.768;4.884;2024-02-21T08:19:07;8.90;74.40
82851;DHT22;72609;45.768;4.884;2024-02-21T08:21:33;8.90;74.40
82851;DHT22;72609;45.768;4.884;2024-02-21T08:23:58;8.80;74.70
82851;DHT22;72609;45.768;4.884;2024-02-21T08:26:24;8.80;74.80
82851;DHT22;72609;45.768;4.884;2024-02-21T08:28:53;9.00;74.70
82851;DHT22;72609;45.768;4.884;2024-02-21T08:31:19;9.00;73.90
82851;DHT22;72609;45.768;4.884;2024-02-21T08:33:45;9.00;73.70
82851;DHT22;72609;45.768;4.884;2024-02-21T08:36:20;9.10;73.70
82851;DHT22;72609;45.768;4.884;2024-02-21T08:38:46;9.10;73.40
82851;DHT22;72609;45.768;4.884;2024-02-21T08:41:11;9.10;73.40
82851;DHT22;72609;45.768;4.884;2024-02-21T08:43:37;9.20;73.30
82851;DHT22;72609;45.768;4.884;2024-02-21T08:46:04;9.30;73.20
82851;DHT22;72609;45.768;4.884;2024-02-21T08:48:30;9.30;72.80
82851;DHT22;72609;45.768;4.884;2024-02-21T08:50:56;9.40;72.80
82851;DHT22;72609;45.768;4.884;2024-02-21T08:53:21;9.40;72.60
82851;DHT22;72609;45.768;4.884;2024-02-21T08:55:47;9.50;72.80
82851;DHT22;72609;45.768;4.884;2024-02-21T08:58:12;9.30;72.70
82851;DHT22;72609;45.768;4.884;2024-02-21T09:00:40;9.40;73.00
82851;DHT22;72609;45.768;4.884;2024-02-21T09:03:05;9.60;73.10
82851;DHT22;72609;45.768;4.884;2024-02-21T09:05:31;9.50;72.50
82851;DHT22;72609;45.768;4.884;2024-02-21T09:07:57;9.50;72.50
82851;DHT22;72609;45.768;4.884;2024-02-21T09:10:22;9.60;73.00
82851;DHT22;72609;45.768;4.884;2024-02-21T09:12:48;9.60;73.00
82851;DHT22;72609;45.768;4.884;2024-02-21T09:15:13;9.60;72.90
82851;DHT22;72609;45.768;4.884;2024-02-21T09:17:39;9.60;72.60
82851;DHT22;72609;45.768;4.884;2024-02-21T09:20:05;9.70;72.60
82851;DHT22;72609;45.768;4.884;2024-02-21T09:22:31;9.70;72.90
82851;DHT22;72609;45.768;4.884;2024-02-21T09:25:00;9.70;72.50
82851;DHT22;72609;45.768;4.884;2024-02-21T09:27:25;9.80;72.80
82851;DHT22;72609;45.768;4.884;2024-02-21T09:29:51;9.80;72.80
82851;DHT22;72609;45.768;4.884;2024-02-21T09:32:18;9.90;72.80
82851;DHT22;72609;45.768;4.884;2024-02-21T09:34:44;10.00;72.60
82851;DHT22;72609;45.768;4.884;2024-02-21T09:37:10;10.00;72.50
82851;DHT22;72609;45.768;4.884;2024-02-21T09:39:36;10.10;71.80
82851;DHT22;72609;45.768;4.884;2024-02-21T09:42:06;10.10;71.70
82851;DHT22;72609;45.768;4.884;2024-02-21T09:44:38;10.00;71.80
82851;DHT22;72609;45.768;4.884;2024-02-21T09:47:07;10.00;71.80
82851;DHT22;72609;45.768;4.884;2024-02-21T09:49:35;10.10;71.90
82851;DHT22;72609;45.768;4.884;2024-02-21T09:52:05;10.20;72.20
82851;DHT22;72609;45.768;4.884;2024-02-21T09:54:35;10.20;71.90
82851;DHT22;72609;45.768;4.884;2024-02-21T09:57:04;10.30;71.80
82851;DHT22;72609;45.768;4.884;2024-02-21T09:59:32;10.40;71.90
82851;DHT22;72609;45.768;4.884;2024-02-21T10:01:58;10.40;71.30
82851;DHT22;72609;45.768;4.884;2024-02-21T10:04:27;10.40;71.50
82851;DHT22;72609;45.768;4.884;2024-02-21T10:06:56;10.50;72.60
82851;DHT22;72609;45.768;4.884;2024-02-21T10:09:27;10.50;71.00
82851;DHT22;72609;45.768;4.884;2024-02-21T10:11:54;10.50;70.40
82851;DHT22;72609;45.768;4.884;2024-02-21T10:14:20;10.60;70.50
82851;DHT22;72609;45.768;4.884;2024-02-21T10:16:48;10.60;70.20
82851;DHT22;72609;45.768;4.884;2024-02-21T10:19:20;10.60;70.30
82851;DHT22;72609;45.768;4.884;2024-02-21T10:22:07;10.70;70.20
82851;DHT22;72609;45.768;4.884;2024-02-21T10:24:34;10.60;69.80
82851;DHT22;72609;45.768;4.884;2024-02-21T10:27:03;10.70;70.10
82851;DHT22;72609;45.768;4.884;2024-02-21T10:29:30;10.70;70.00
82851;DHT22;72609;45.768;4.884;2024-02-21T10:32:09;10.80;70.00
82851;DHT22;72609;45.768;4.884;2024-02-21T10:34:37;10.80;69.80
82851;DHT22;72609;45.768;4.884;2024-02-21T10:37:03;10.80;69.50
82851;DHT22;72609;45.768;4.884;2024-02-21T10:39:33;10.80;69.80
82851;DHT22;72609;45.768;4.884;2024-02-21T10:42:01;10.80;69.70
82851;DHT22;72609;45.768;4.884;2024-02-21T10:44:34;10.90;70.10
82851;DHT22;72609;45.768;4.884;2024-02-21T10:47:09;11.00;69.90
82851;DHT22;72609;45.768;4.884;2024-02-21T10:49:39;11.00;69.70
82851;DHT22;72609;45.768;4.884;2024-02-21T10:54:56;11.20;69.50
82851;DHT22;72609;45.768;4.884;2024-02-21T10:57:26;11.30;69.20
82851;DHT22;72609;45.768;4.884;2024-02-21T10:59:53;11.20;69.10
82851;DHT22;72609;45.768;4.884;2024-02-21T11:02:20;11.20;69.30
82851;DHT22;72609;45.768;4.884;2024-02-21T11:04:46;11.10;69.40
82851;DHT22;72609;45.768;4.884;2024-02-21T11:07:13;11.10;69.80
82851;DHT22;72609;45.768;4.884;2024-02-21T11:09:39;11.10;69.60
82851;DHT22;72609;45.768;4.884;2024-02-21T11:12:06;11.10;69.80
82851;DHT22;72609;45.768;4.884;2024-02-21T11:14:32;11.10;69.60
82851;DHT22;72609;45.768;4.884;2024-02-21T11:16:58;11.10;69.90
82851;DHT22;72609;45.768;4.884;2024-02-21T11:19:28;11.20;69.80
82851;DHT22;72609;45.768;4.884;2024-02-21T11:21:55;11.20;70.10
82851;DHT22;72609;45.768;4.884;2024-02-21T11:24:34;11.30;70.30
82851;DHT22;72609;45.768;4.884;2024-02-21T11:29:45;11.40;69.40
82851;DHT22;72609;45.768;4.884;2024-02-21T11:32:11;11.40;69.70
82851;DHT22;72609;45.768;4.884;2024-02-21T11:34:40;11.50;70.10
82851;DHT22;72609;45.768;4.884;2024-02-21T11:37:15;11.50;69.40
82851;DHT22;72609;45.768;4.884;2024-02-21T11:39:42;11.60;69.20
82851;DHT22;72609;45.768;4.884;2024-02-21T11:42:08;11.60;69.80
82851;DHT22;72609;45.768;4.884;2024-02-21T11:44:34;11.80;75.20
82851;DHT22;72609;45.768;4.884;2024-02-21T11:47:00;11.80;72.30
82851;DHT22;72609;45.768;4.884;2024-02-21T11:49:28;11.80;71.90
82851;DHT22;72609;45.768;4.884;2024-02-21T11:51:58;11.90;72.90
82851;DHT22;72609;45.768;4.884;2024-02-21T11:54:24;11.80;71.80
82851;DHT22;72609;45.768;4.884;2024-02-21T11:56:50;11.90;72.10
82851;DHT22;72609;45.768;4.884;2024-02-21T11:59:15;11.90;71.90
82851;DHT22;72609;45.768;4.884;2024-02-21T12:01:41;12.00;72.00
82851;DHT22;72609;45.768;4.884;2024-02-21T12:04:07;12.00;72.70
82851;DHT22;72609;45.768;4.884;2024-02-21T12:06:33;12.00;72.20
82851;DHT22;72609;45.768;4.884;2024-02-21T12:08:59;12.00;76.00
82851;DHT22;72609;45.768;4.884;2024-02-21T12:11:24;12.10;74.40
82851;DHT22;72609;45.768;4.884;2024-02-21T12:14:00;12.10;73.60
82851;DHT22;72609;45.768;4.884;2024-02-21T12:16:27;12.20;70.70
82851;DHT22;72609;45.768;4.884;2024-02-21T12:18:54;12.20;69.40
82851;DHT22;72609;45.768;4.884;2024-02-21T12:21:24;12.20;70.30
82851;DHT22;72609;45.768;4.884;2024-02-21T12:23:49;12.30;73.70
82851;DHT22;72609;45.768;4.884;2024-02-21T12:26:15;12.30;72.80
82851;DHT22;72609;45.768;4.884;2024-02-21T12:28:40;12.30;72.10
82851;DHT22;72609;45.768;4.884;2024-02-21T12:31:06;12.30;73.40
82851;DHT22;72609;45.768;4.884;2024-02-21T12:33:32;12.40;71.90
82851;DHT22;72609;45.768;4.884;2024-02-21T12:35:58;12.40;72.60
82851;DHT22;72609;45.768;4.884;2024-02-21T12:38:24;12.40;72.90
82851;DHT22;72609;45.768;4.884;2024-02-21T12:40:49;12.50;75.30
82851;DHT22;72609;45.768;4.884;2024-02-21T12:43:15;12.50;72.30
82851;DHT22;72609;45.768;4.884;2024-02-21T12:45:40;12.50;72.30
82851;DHT22;72609;45.768;4.884;2024-02-21T12:48:06;12.60;72.00
82851;DHT22;72609;45.768;4.884;2024-02-21T12:50:32;12.60;72.90
82851;DHT22;72609;45.768;4.884;2024-02-21T12:52:58;12.60;73.10
82851;DHT22;72609;45.768;4.884;2024-02-21T12:55:24;12.60;72.30
82851;DHT22;72609;45.768;4.884;2024-02-21T12:57:49;12.60;72.80
82851;DHT22;72609;45.768;4.884;2024-02-21T13:00:15;12.60;72.20
82851;DHT22;72609;45.768;4.884;2024-02-21T13:02:41;12.70;72.30
82851;DHT22;72609;45.768;4.884;2024-02-21T13:05:07;12.70;74.20
82851;DHT22;72609;45.768;4.884;2024-02-21T13:07:34;12.80;74.40
82851;DHT22;72609;45.768;4.884;2024-02-21T13:09:59;12.80;75.70
82851;DHT22;72609;45.768;4.884;2024-02-21T13:12:25;13.00;70.20
82851;DHT22;72609;45.768;4.884;2024-02-21T13:14:58;12.90;67.80
82851;DHT22;72609;45.768;4.884;2024-02-21T13:17:24;13.00;67.20
82851;DHT22;72609;45.768;4.884;2024-02-21T13:19:50;12.90;64.20
82851;DHT22;72609;45.768;4.884;2024-02-21T13:22:15;13.00;63.50
82851;DHT22;72609;45.768;4.884;2024-02-21T13:24:41;13.00;61.90
82851;DHT22;72609;45.768;4.884;2024-02-21T13:27:06;13.00;61.10
82851;DHT22;72609;45.768;4.884;2024-02-21T13:29:32;13.10;60.70
82851;DHT22;72609;45.768;4.884;2024-02-21T13:31:58;13.00;61.10
82851;DHT22;72609;45.768;4.884;2024-02-21T13:34:24;13.10;59.70
82851;DHT22;72609;45.768;4.884;2024-02-21T13:36:50;13.00;60.30
82851;DHT22;72609;45.768;4.884;2024-02-21T13:39:16;13.00;60.50
82851;DHT22;72609;45.768;4.884;2024-02-21T13:41:42;13.10;59.70
82851;DHT22;72609;45.768;4.884;2024-02-21T13:44:08;13.10;60.20
82851;DHT22;72609;45.768;4.884;2024-02-21T13:46:34;13.20;59.00
82851;DHT22;72609;45.768;4.884;2024-02-21T13:49:04;13.20;59.50
82851;DHT22;72609;45.768;4.884;2024-02-21T13:51:31;13.20;59.80
82851;DHT22;72609;45.768;4.884;2024-02-21T13:53:57;13.30;60.70
82851;DHT22;72609;45.768;4.884;2024-02-21T13:56:24;13.30;58.50
82851;DHT22;72609;45.768;4.884;2024-02-21T13:58:50;13.30;59.70
82851;DHT22;72609;45.768;4.884;2024-02-21T14:01:16;13.30;58.70
82851;DHT22;72609;45.768;4.884;2024-02-21T14:03:41;13.40;58.70
82851;DHT22;72609;45.768;4.884;2024-02-21T14:06:07;13.30;58.50
82851;DHT22;72609;45.768;4.884;2024-02-21T14:08:32;13.40;58.00
82851;DHT22;72609;45.768;4.884;2024-02-21T14:10:59;13.50;57.00
82851;DHT22;72609;45.768;4.884;2024-02-21T14:13:26;13.60;57.40
82851;DHT22;72609;45.768;4.884;2024-02-21T14:15:51;13.50;57.70
82851;DHT22;72609;45.768;4.884;2024-02-21T14:18:17;13.50;57.90
82851;DHT22;72609;45.768;4.884;2024-02-21T14:20:43;13.50;58.60
82851;DHT22;72609;45.768;4.884;2024-02-21T14:23:08;13.40;57.70
82851;DHT22;72609;45.768;4.884;2024-02-21T14:25:34;13.40;59.00
82851;DHT22;72609;45.768;4.884;2024-02-21T14:28:00;13.50;58.30
82851;DHT22;72609;45.768;4.884;2024-02-21T14:30:28;13.50;58.10
82851;DHT22;72609;45.768;4.884;2024-02-21T14:32:54;13.50;58.40
82851;DHT22;72609;45.768;4.884;2024-02-21T14:35:20;13.50;57.40
82851;DHT22;72609;45.768;4.884;2024-02-21T14:37:46;13.50;58.20
82851;DHT22;72609;45.768;4.884;2024-02-21T14:40:14;13.60;57.80
82851;DHT22;72609;45.768;4.884;2024-02-21T14:42:39;13.60;56.20
82851;DHT22;72609;45.768;4.884;2024-02-21T14:45:05;13.60;57.10
82851;DHT22;72609;45.768;4.884;2024-02-21T14:47:32;13.60;56.90
82851;DHT22;72609;45.768;4.884;2024-02-21T14:49:58;13.60;57.00
82851;DHT22;72609;45.768;4.884;2024-02-21T14:52:24;13.70;55.40
82851;DHT22;72609;45.768;4.884;2024-02-21T14:54:50;13.70;56.40
82851;DHT22;72609;45.768;4.884;2024-02-21T14:57:19;13.70;56.50
82851;DHT22;72609;45.768;4.884;2024-02-21T14:59:45;13.60;56.80
82851;DHT22;72609;45.768;4.884;2024-02-21T15:02:11;13.60;55.50
82851;DHT22;72609;45.768;4.884;2024-02-21T15:04:36;13.60;55.70
82851;DHT22;72609;45.768;4.884;2024-02-21T15:07:02;13.60;56.40
82851;DHT22;72609;45.768;4.884;2024-02-21T15:09:28;13.60;56.00
82851;DHT22;72609;45.768;4.884;2024-02-21T15:11:54;13.60;55.30
82851;DHT22;72609;45.768;4.884;2024-02-21T15:14:19;13.80;52.80
82851;DHT22;72609;45.768;4.884;2024-02-21T15:16:48;13.80;53.50
82851;DHT22;72609;45.768;4.884;2024-02-21T15:19:13;13.90;52.90
82851;DHT22;72609;45.768;4.884;2024-02-21T15:21:39;13.90;51.40
82851;DHT22;72609;45.768;4.884;2024-02-21T15:24:05;14.00;50.00
82851;DHT22;72609;45.768;4.884;2024-02-21T15:26:31;14.00;51.70
82851;DHT22;72609;45.768;4.884;2024-02-21T15:28:56;14.00;49.80
82851;DHT22;72609;45.768;4.884;2024-02-21T15:31:22;14.00;49.70
82851;DHT22;72609;45.768;4.884;2024-02-21T15:33:52;14.00;50.50
82851;DHT22;72609;45.768;4.884;2024-02-21T15:36:18;14.00;48.70
82851;DHT22;72609;45.768;4.884;2024-02-21T15:38:45;14.00;50.00
82851;DHT22;72609;45.768;4.884;2024-02-21T15:41:12;14.00;50.10